createdAt,value
2022-10-09T00:01:15.509Z,4.43
2022-10-09T00:06:13.558Z,3.80
2022-10-09T00:08:41.378Z,4.05
2022-10-09T00:11:11.032Z,4.43
2022-10-09T00:13:38.830Z,3.95
2022-10-09T00:16:08.670Z,3.85
2022-10-09T00:18:36.681Z,3.67
2022-10-09T00:21:04.936Z,3.55
2022-10-09T00:23:32.530Z,3.95
2022-10-09T00:26:01.741Z,3.65
2022-10-09T00:28:34.251Z,3.50
2022-10-09T00:31:09.159Z,3.67
2022-10-09T00:33:37.079Z,3.83
2022-10-09T00:36:12.574Z,4.00
2022-10-09T00:38:39.489Z,3.55
2022-10-09T00:41:07.404Z,4.22
2022-10-09T00:43:55.089Z,3.70
2022-10-09T00:46:26.733Z,3.97
2022-10-09T00:49:11.976Z,3.20
2022-10-09T00:51:39.205Z,2.75
2022-10-09T00:54:09.979Z,3.53
2022-10-09T00:56:36.867Z,2.92
2022-10-09T00:59:04.385Z,3.08
2022-10-09T01:01:31.490Z,3.42
2022-10-09T01:03:58.442Z,3.83
2022-10-09T01:07:07.038Z,2.50
2022-10-09T01:09:52.420Z,3.75
2022-10-09T01:12:37.578Z,4.00
2022-10-09T01:15:18.854Z,4.47
2022-10-09T01:17:57.756Z,3.38
2022-10-09T01:20:27.934Z,3.97
2022-10-09T01:23:22.974Z,3.85
2022-10-09T01:26:17.639Z,3.80
2022-10-09T01:28:51.112Z,3.70
2022-10-09T01:31:19.398Z,4.18
2022-10-09T01:33:47.020Z,3.83
2022-10-09T01:36:16.046Z,4.90
2022-10-09T01:38:44.365Z,4.70
2022-10-09T01:41:11.484Z,4.43
2022-10-09T01:43:38.230Z,5.30
2022-10-09T01:46:19.705Z,5.25
2022-10-09T01:48:52.916Z,5.88
2022-10-09T01:51:24.110Z,5.47
2022-10-09T01:53:54.459Z,5.78
2022-10-09T01:56:24.276Z,5.70
2022-10-09T01:59:02.125Z,5.45
2022-10-09T02:01:35.241Z,5.97
2022-10-09T02:04:05.805Z,6.05
2022-10-09T02:06:33.797Z,5.82
2022-10-09T02:09:04.122Z,6.20
2022-10-09T02:11:32.334Z,6.18
2022-10-09T02:13:59.581Z,6.72
2022-10-09T02:16:42.193Z,6.70
2022-10-09T02:19:28.411Z,6.57
2022-10-09T02:22:23.193Z,6.78
2022-10-09T02:24:50.071Z,7.20
2022-10-09T02:27:19.676Z,6.03
2022-10-09T02:29:48.022Z,7.25
2022-10-09T02:32:15.903Z,7.35
2022-10-09T02:34:43.336Z,6.35
2022-10-09T02:37:10.157Z,6.72
2022-10-09T02:39:36.966Z,6.57
2022-10-09T02:42:04.862Z,7.25
2022-10-09T02:44:31.696Z,6.78
2022-10-09T02:46:58.552Z,6.30
2022-10-09T02:49:25.365Z,7.18
2022-10-09T02:51:52.131Z,6.50
2022-10-09T02:54:18.956Z,6.32
2022-10-09T02:56:46.077Z,6.68
2022-10-09T02:59:12.856Z,6.40
2022-10-09T03:01:39.784Z,6.15
2022-10-09T03:04:06.625Z,6.60
2022-10-09T03:06:34.194Z,5.70
2022-10-09T03:09:01.066Z,5.25
2022-10-09T03:11:27.808Z,6.03
2022-10-09T03:13:54.824Z,5.85
2022-10-09T03:16:23.761Z,6.07
2022-10-09T03:18:51.824Z,5.32
2022-10-09T03:21:21.434Z,5.20
2022-10-09T03:23:48.394Z,4.93
2022-10-09T03:26:17.445Z,5.32
2022-10-09T03:28:47.883Z,6.28
2022-10-09T03:31:46.464Z,5.10
2022-10-09T03:34:07.136Z,5.80
2022-10-09T03:36:33.933Z,5.25
2022-10-09T03:39:00.617Z,5.10
2022-10-09T03:41:27.475Z,5.50
2022-10-09T03:43:54.217Z,4.60
2022-10-09T03:46:21.042Z,5.93
2022-10-09T03:48:47.913Z,6.30
2022-10-09T03:51:14.862Z,6.45
2022-10-09T03:53:41.677Z,5.70
2022-10-09T03:56:08.422Z,6.40
2022-10-09T03:58:35.199Z,5.88
2022-10-09T04:01:02.184Z,7.43
2022-10-09T04:03:29.029Z,6.72
2022-10-09T04:05:55.940Z,7.13
2022-10-09T04:08:22.891Z,6.63
2022-10-09T04:10:57.224Z,7.70
2022-10-09T04:13:24.101Z,5.20
2022-10-09T04:15:55.021Z,7.30
2022-10-09T04:18:22.507Z,7.30
2022-10-09T04:20:51.278Z,6.72
2022-10-09T04:23:19.749Z,5.85
2022-10-09T04:25:53.129Z,6.35
2022-10-09T04:28:20.104Z,6.55
2022-10-09T04:30:47.194Z,6.57
2022-10-09T04:33:14.044Z,6.90
2022-10-09T04:35:45.228Z,6.07
2022-10-09T04:38:24.776Z,5.93
2022-10-09T04:41:02.192Z,6.05
2022-10-09T04:43:29.605Z,5.75
2022-10-09T04:45:58.511Z,6.07
2022-10-09T04:48:25.986Z,6.03
2022-10-09T04:50:52.740Z,5.43
2022-10-09T04:53:20.071Z,6.35
2022-10-09T04:55:46.912Z,6.18
2022-10-09T04:58:14.421Z,5.90
2022-10-09T05:00:43.340Z,6.20
2022-10-09T05:03:11.293Z,5.45
2022-10-09T05:05:38.586Z,5.85
2022-10-09T05:08:05.773Z,6.28
2022-10-09T05:10:33.341Z,7.07
2022-10-09T05:13:00.350Z,5.85
2022-10-09T05:15:27.370Z,5.57
2022-10-09T05:17:55.135Z,5.85
2022-10-09T05:20:22.178Z,6.78
2022-10-09T05:22:49.270Z,6.25
2022-10-09T05:25:23.912Z,6.10
2022-10-09T05:27:50.755Z,6.68
2022-10-09T05:30:17.650Z,7.25
2022-10-09T05:32:44.393Z,6.75
2022-10-09T05:35:11.195Z,6.53
2022-10-09T05:37:55.261Z,8.15
2022-10-09T05:40:33.769Z,7.05
2022-10-09T05:43:05.939Z,7.35
2022-10-09T05:45:32.914Z,6.20
2022-10-09T05:47:59.724Z,7.75
2022-10-09T05:50:27.517Z,7.38
2022-10-09T05:52:54.345Z,7.30
2022-10-09T05:55:21.124Z,6.60
2022-10-09T05:57:50.400Z,6.63
2022-10-09T06:00:17.463Z,7.75
2022-10-09T06:02:44.324Z,6.35
2022-10-09T06:05:11.448Z,7.50
2022-10-09T06:07:45.550Z,7.35
2022-10-09T06:10:12.855Z,6.68
2022-10-09T06:12:40.072Z,7.35
2022-10-09T06:15:07.465Z,8.32
2022-10-09T06:17:34.506Z,9.15
2022-10-09T06:20:01.352Z,9.20
2022-10-09T06:22:28.212Z,9.02
2022-10-09T06:24:55.159Z,7.97
2022-10-09T06:27:21.989Z,7.97
2022-10-09T06:29:48.939Z,7.85
2022-10-09T06:32:15.755Z,7.55
2022-10-09T06:34:42.569Z,7.57
2022-10-09T06:37:09.585Z,8.60
2022-10-09T06:39:36.445Z,9.57
2022-10-09T06:42:04.255Z,8.98
2022-10-09T06:44:31.185Z,9.07
2022-10-09T06:46:57.975Z,6.93
2022-10-09T06:49:24.927Z,7.40
2022-10-09T06:51:51.696Z,6.80
2022-10-09T06:54:18.534Z,6.55
2022-10-09T06:56:45.487Z,5.70
2022-10-09T06:59:12.485Z,6.75
2022-10-09T07:01:39.414Z,5.75
2022-10-09T07:04:10.346Z,5.93
2022-10-09T07:06:39.963Z,6.85
2022-10-09T07:09:09.098Z,6.07
2022-10-09T07:11:38.457Z,5.72
2022-10-09T07:14:07.954Z,5.32
2022-10-09T07:16:37.856Z,4.63
2022-10-09T07:19:07.785Z,4.70
2022-10-09T07:21:35.959Z,5.25
2022-10-09T07:24:04.396Z,4.68
2022-10-09T07:26:34.116Z,4.85
2022-10-09T07:29:02.205Z,4.25
2022-10-09T07:31:29.551Z,4.78
2022-10-09T07:33:57.592Z,4.60
2022-10-09T07:36:24.894Z,4.63
2022-10-09T07:38:54.113Z,3.95
2022-10-09T07:41:22.486Z,4.20
2022-10-09T07:43:49.377Z,4.57
2022-10-09T07:46:19.215Z,3.63
2022-10-09T07:48:46.720Z,4.38
2022-10-09T07:51:18.179Z,3.35
2022-10-09T07:53:45.609Z,3.88
2022-10-09T07:56:18.074Z,3.70
2022-10-09T07:58:52.745Z,4.32
2022-10-09T08:01:20.783Z,4.30
2022-10-09T08:03:48.332Z,4.10
2022-10-09T08:06:15.756Z,3.75
2022-10-09T08:08:42.910Z,4.05
2022-10-09T08:11:17.389Z,4.43
2022-10-09T08:13:45.402Z,4.22
2022-10-09T08:16:12.500Z,4.03
2022-10-09T08:18:39.462Z,4.05
2022-10-09T08:21:17.514Z,3.40
2022-10-09T08:23:44.757Z,3.70
2022-10-09T08:26:16.883Z,3.70
2022-10-09T08:28:44.109Z,3.15
2022-10-09T08:31:16.222Z,3.53
2022-10-09T08:33:43.654Z,3.40
2022-10-09T08:36:12.102Z,3.67
2022-10-09T08:38:47.281Z,3.08
2022-10-09T08:41:38.176Z,3.80
2022-10-09T08:44:10.518Z,3.00
2022-10-09T08:47:06.362Z,3.50
2022-10-09T08:49:47.197Z,3.00
2022-10-09T08:52:29.142Z,3.30
2022-10-09T08:54:59.612Z,3.17
2022-10-09T08:57:32.787Z,3.50
2022-10-09T08:59:59.797Z,2.83
2022-10-09T09:02:52.185Z,2.97
2022-10-09T09:05:52.809Z,2.92
2022-10-09T09:08:53.548Z,3.13
2022-10-09T09:11:48.022Z,2.60
2022-10-09T09:14:48.380Z,3.00
2022-10-09T09:17:19.598Z,2.67
2022-10-09T09:20:10.153Z,2.50
2022-10-09T09:22:40.170Z,2.72
2022-10-09T09:25:36.107Z,2.88
2022-10-09T09:30:52.084Z,3.00
2022-10-09T09:33:33.828Z,2.53
2022-10-09T09:36:11.220Z,2.78
2022-10-09T09:38:48.048Z,2.55
2022-10-09T09:41:25.818Z,2.85
2022-10-09T09:43:52.842Z,2.53
2022-10-09T09:46:24.157Z,2.60
2022-10-09T09:48:51.891Z,2.60
2022-10-09T09:51:28.855Z,2.60
2022-10-09T09:53:59.316Z,2.63
2022-10-09T09:57:12.888Z,2.63
2022-10-09T09:59:44.146Z,2.90
2022-10-09T10:02:14.921Z,2.35
2022-10-09T10:04:59.635Z,2.45
2022-10-09T10:07:32.320Z,2.30
2022-10-09T10:10:25.885Z,2.10
2022-10-09T10:12:53.124Z,2.47
2022-10-09T10:15:26.109Z,2.17
2022-10-09T10:18:16.986Z,2.00
2022-10-09T10:20:50.461Z,2.55
2022-10-09T10:23:48.732Z,2.40
2022-10-09T10:26:28.711Z,2.30
2022-10-09T10:28:58.550Z,2.08
2022-10-09T10:31:46.815Z,2.05
2022-10-09T10:34:26.357Z,2.10
2022-10-09T10:37:13.485Z,2.47
2022-10-09T10:39:43.362Z,2.00
2022-10-09T10:42:19.783Z,2.60
2022-10-09T10:44:54.627Z,2.17
2022-10-09T10:47:30.317Z,2.45
2022-10-09T10:49:57.386Z,2.63
2022-10-09T10:53:00.909Z,2.20
2022-10-09T10:56:06.054Z,2.22
2022-10-09T10:59:08.173Z,2.05
2022-10-09T11:01:47.718Z,2.30
2022-10-09T11:04:30.150Z,1.70
2022-10-09T11:07:02.696Z,2.20
2022-10-09T11:10:02.991Z,1.90
2022-10-09T11:12:58.301Z,1.83
2022-10-09T11:15:49.916Z,2.00
2022-10-09T11:18:54.861Z,1.50
2022-10-09T11:21:40.607Z,1.30
2022-10-09T11:24:10.654Z,1.63
2022-10-09T11:27:20.300Z,1.30
2022-10-09T11:29:58.853Z,1.48
2022-10-09T11:32:47.290Z,1.30
2022-10-09T11:35:34.124Z,1.55
2022-10-09T11:38:26.554Z,1.35
2022-10-09T11:40:55.807Z,1.70
2022-10-09T11:43:23.194Z,1.20
2022-10-09T11:46:05.195Z,1.60
2022-10-09T11:48:54.919Z,1.85
2022-10-09T11:51:48.255Z,1.92
2022-10-09T11:54:18.493Z,1.85
2022-10-09T11:57:06.126Z,1.98
2022-10-09T11:59:42.451Z,1.33
2022-10-09T12:02:21.860Z,1.20
2022-10-09T12:04:54.819Z,1.30
2022-10-09T12:07:35.813Z,1.40
2022-10-09T12:10:05.856Z,1.52
2022-10-09T12:12:33.631Z,1.42
2022-10-09T12:15:25.028Z,1.60
2022-10-09T12:17:52.226Z,1.35
2022-10-09T12:20:23.904Z,1.60
2022-10-09T12:23:21.860Z,1.63
2022-10-09T12:25:45.939Z,1.40
2022-10-09T12:28:33.682Z,1.45
2022-10-09T12:31:03.166Z,2.05
2022-10-09T12:33:37.087Z,1.55
2022-10-09T12:36:06.580Z,1.60
2022-10-09T12:38:33.982Z,1.77
2022-10-09T12:41:08.613Z,1.48
2022-10-09T12:43:36.500Z,1.70
2022-10-09T12:46:03.688Z,1.40
2022-10-09T12:48:37.060Z,1.30
2022-10-09T12:51:20.725Z,1.27
2022-10-09T12:53:49.806Z,1.30
2022-10-09T12:56:33.307Z,1.40
2022-10-09T12:59:01.658Z,1.17
2022-10-09T13:01:28.816Z,1.20
2022-10-09T13:03:58.876Z,1.40
2022-10-09T13:06:43.743Z,1.50
2022-10-09T13:09:23.402Z,1.73
2022-10-09T13:12:06.414Z,1.50
2022-10-09T13:14:33.216Z,1.17
2022-10-09T13:17:00.889Z,1.30
2022-10-09T13:19:30.773Z,1.65
2022-10-09T13:22:23.818Z,1.50
2022-10-09T13:24:53.634Z,1.60
2022-10-09T13:27:24.114Z,1.30
2022-10-09T13:29:51.259Z,1.50
2022-10-09T13:32:19.096Z,1.38
2022-10-09T13:34:47.577Z,1.38
2022-10-09T13:37:17.461Z,1.42
2022-10-09T13:39:44.510Z,1.33
2022-10-09T13:42:14.783Z,0.90
2022-10-09T13:44:42.285Z,1.30
2022-10-09T13:47:09.793Z,1.33
2022-10-09T13:49:36.927Z,1.40
2022-10-09T13:52:04.480Z,1.40
2022-10-09T13:54:31.876Z,1.67
2022-10-09T13:56:59.182Z,1.40
2022-10-09T13:59:26.553Z,1.42
2022-10-09T14:01:54.038Z,1.75
2022-10-09T14:04:21.267Z,1.30
2022-10-09T14:06:48.810Z,1.20
2022-10-09T14:09:16.105Z,1.73
2022-10-09T14:11:43.338Z,1.77
2022-10-09T14:14:10.303Z,1.52
2022-10-09T14:16:37.405Z,1.10
2022-10-09T14:19:06.311Z,1.65
2022-10-09T14:21:33.836Z,1.50
2022-10-09T14:24:02.431Z,1.20
2022-10-09T14:26:29.838Z,1.17
2022-10-09T14:28:59.677Z,1.25
2022-10-09T14:31:27.040Z,1.10
2022-10-09T14:33:57.479Z,1.33
2022-10-09T14:36:24.476Z,1.35
2022-10-09T14:38:51.733Z,1.40
2022-10-09T14:41:18.953Z,1.45
2022-10-09T14:43:47.482Z,1.40
2022-10-09T14:46:17.398Z,1.20
2022-10-09T14:48:46.062Z,1.48
2022-10-09T14:51:15.540Z,1.48
2022-10-09T14:53:43.129Z,1.52
2022-10-09T14:56:14.168Z,1.48
2022-10-09T14:58:41.942Z,1.70
2022-10-09T15:01:13.017Z,1.45
2022-10-09T15:03:40.004Z,1.70
2022-10-09T15:06:08.921Z,1.20
2022-10-09T15:08:38.780Z,1.73
2022-10-09T15:11:06.705Z,1.65
2022-10-09T15:13:35.177Z,1.38
2022-10-09T15:16:04.750Z,1.33
2022-10-09T15:18:32.024Z,1.27
2022-10-09T15:20:59.973Z,1.45
2022-10-09T15:23:27.977Z,1.85
2022-10-09T15:25:57.480Z,1.33
2022-10-09T15:28:25.064Z,1.42
2022-10-09T15:30:54.926Z,1.60
2022-10-09T15:33:25.697Z,1.50
2022-10-09T15:35:53.559Z,1.83
2022-10-09T15:38:22.508Z,1.50
2022-10-09T15:40:52.130Z,1.50
2022-10-09T15:43:20.796Z,1.45
2022-10-09T15:45:48.432Z,1.40
2022-10-09T15:48:16.628Z,1.88
2022-10-09T15:50:46.738Z,1.60
2022-10-09T15:53:15.147Z,1.42
2022-10-09T15:55:44.404Z,1.80
2022-10-09T15:58:11.921Z,1.67
2022-10-09T16:00:40.460Z,1.60
2022-10-09T16:03:07.993Z,1.85
2022-10-09T16:05:43.689Z,1.90
2022-10-09T16:08:11.733Z,1.95
2022-10-09T16:10:49.055Z,1.73
2022-10-09T16:13:16.590Z,1.60
2022-10-09T16:15:44.643Z,1.48
2022-10-09T16:18:11.946Z,2.00
2022-10-09T16:20:40.967Z,1.52
2022-10-09T16:23:10.587Z,2.00
2022-10-09T16:25:39.202Z,1.95
2022-10-09T16:28:07.576Z,2.00
2022-10-09T16:30:42.864Z,2.67
2022-10-09T16:33:12.785Z,3.03
2022-10-09T16:35:40.492Z,2.92
2022-10-09T16:38:07.813Z,3.95
2022-10-09T16:41:00.933Z,2.20
2022-10-09T16:43:21.880Z,2.25
2022-10-09T16:45:48.951Z,2.45
2022-10-09T16:48:15.940Z,2.47
2022-10-09T16:50:43.302Z,2.00
2022-10-09T16:53:10.654Z,2.30
2022-10-09T16:55:37.807Z,2.00
2022-10-09T16:58:05.021Z,2.28
2022-10-09T17:00:32.119Z,1.98
2022-10-09T17:03:00.060Z,2.50
2022-10-09T17:05:27.054Z,2.00
2022-10-09T17:07:54.802Z,2.00
2022-10-09T17:10:21.619Z,2.22
2022-10-09T17:12:48.785Z,2.35
2022-10-09T17:15:16.179Z,2.60
2022-10-09T17:17:43.153Z,2.17
2022-10-09T17:20:10.502Z,2.03
2022-10-09T17:22:37.524Z,2.30
2022-10-09T17:25:04.978Z,2.60
2022-10-09T17:27:32.102Z,1.92
2022-10-09T17:29:58.993Z,2.13
2022-10-09T17:32:25.999Z,1.90
2022-10-09T17:34:52.977Z,1.92
2022-10-09T17:37:20.071Z,2.10
2022-10-09T17:39:51.889Z,2.38
2022-10-09T17:42:19.445Z,2.10
2022-10-09T17:44:46.501Z,2.63
2022-10-09T17:47:13.729Z,1.98
2022-10-09T17:49:40.801Z,2.35
2022-10-09T17:52:08.102Z,2.25
2022-10-09T17:54:35.330Z,2.38
2022-10-09T17:57:05.255Z,4.68
2022-10-09T17:59:34.563Z,2.53
2022-10-09T18:02:01.923Z,3.25
2022-10-09T18:04:28.893Z,2.60
2022-10-09T18:06:56.266Z,2.30
2022-10-09T18:09:23.464Z,2.30
2022-10-09T18:11:50.653Z,1.92
2022-10-09T18:14:17.663Z,1.92
2022-10-09T18:16:44.787Z,2.25
2022-10-09T18:19:14.754Z,2.33
2022-10-09T18:21:45.700Z,1.95
2022-10-09T18:24:14.035Z,2.38
2022-10-09T18:26:41.842Z,2.25
2022-10-09T18:29:09.151Z,2.45
2022-10-09T18:31:37.914Z,2.20
2022-10-09T18:34:04.977Z,2.00
2022-10-09T18:36:33.750Z,2.00
2022-10-09T18:39:10.046Z,2.20
2022-10-09T18:41:38.140Z,1.98
2022-10-09T18:44:07.667Z,1.80
2022-10-09T18:46:38.346Z,2.03
2022-10-09T18:49:11.576Z,2.42
2022-10-09T18:51:41.331Z,2.40
2022-10-09T18:54:13.262Z,2.33
2022-10-09T18:56:43.034Z,2.63
2022-10-09T18:59:13.769Z,2.67
2022-10-09T19:01:41.188Z,2.08
2022-10-09T19:04:08.751Z,3.03
2022-10-09T19:06:36.017Z,2.67
2022-10-09T19:09:03.574Z,3.10
2022-10-09T19:11:33.031Z,3.08
2022-10-09T19:14:00.992Z,2.50
2022-10-09T19:16:30.640Z,2.80
2022-10-09T19:18:57.890Z,3.22
2022-10-09T19:21:25.545Z,3.50
2022-10-09T19:23:53.513Z,2.83
2022-10-09T19:26:21.930Z,2.80
2022-10-09T19:28:49.344Z,2.75
2022-10-09T19:31:16.693Z,2.90
2022-10-09T19:33:44.279Z,2.45
2022-10-09T19:36:13.342Z,2.65
2022-10-09T19:38:41.233Z,2.08
2022-10-09T19:41:11.942Z,6.57
2022-10-09T19:43:39.594Z,6.82
2022-10-09T19:46:12.681Z,5.05
2022-10-09T19:48:39.731Z,5.85
2022-10-09T19:51:08.909Z,6.15
2022-10-09T19:53:36.778Z,3.20
2022-10-09T19:56:21.439Z,4.55
2022-10-09T19:58:50.012Z,2.60
2022-10-09T20:01:20.108Z,3.30
2022-10-09T20:03:48.804Z,2.70
2022-10-09T20:06:16.130Z,2.63
2022-10-09T20:08:45.289Z,3.03
2022-10-09T20:11:14.079Z,3.45
2022-10-09T20:13:43.136Z,3.00
2022-10-09T20:16:13.286Z,2.83
2022-10-09T20:18:42.413Z,3.00
2022-10-09T20:21:12.237Z,2.30
2022-10-09T20:23:39.861Z,2.45
2022-10-09T20:26:13.753Z,2.65
2022-10-09T20:28:41.543Z,2.53
2022-10-09T20:31:14.861Z,2.25
2022-10-09T20:33:42.796Z,1.88
2022-10-09T20:36:28.110Z,2.00
2022-10-09T20:38:57.273Z,2.58
2022-10-09T20:41:24.894Z,1.90
2022-10-09T20:43:53.715Z,1.83
2022-10-09T20:46:21.902Z,2.17
2022-10-09T20:48:49.362Z,1.92
2022-10-09T20:51:17.394Z,2.22
2022-10-09T20:53:45.402Z,2.00
2022-10-09T20:56:14.980Z,2.03
2022-10-09T20:58:42.887Z,1.73
2022-10-09T21:01:11.567Z,1.88
2022-10-09T21:03:39.434Z,2.10
2022-10-09T21:06:09.157Z,2.25
2022-10-09T21:08:36.674Z,2.10
2022-10-09T21:11:09.793Z,2.10
2022-10-09T21:13:37.724Z,2.10
2022-10-09T21:16:10.753Z,2.35
2022-10-09T21:18:39.017Z,1.92
2022-10-09T21:21:09.001Z,2.67
2022-10-09T21:23:36.589Z,2.13
2022-10-09T21:26:04.553Z,1.92
2022-10-09T21:28:31.981Z,2.75
2022-10-09T21:30:59.000Z,1.92
2022-10-09T21:33:26.015Z,1.90
2022-10-09T21:35:56.032Z,1.98
2022-10-09T21:38:23.913Z,2.13
2022-10-09T21:40:50.991Z,2.00
2022-10-09T21:43:18.439Z,2.58
2022-10-09T21:45:48.782Z,2.38
2022-10-09T21:48:16.938Z,2.25
2022-10-09T21:50:44.870Z,1.88
2022-10-09T21:53:12.225Z,2.00
2022-10-09T21:55:39.942Z,2.15
2022-10-09T21:58:07.885Z,2.22
2022-10-09T22:00:35.229Z,2.00
2022-10-09T22:03:02.645Z,2.08
2022-10-09T22:05:29.813Z,1.92
2022-10-09T22:07:56.854Z,2.00
2022-10-09T22:10:23.875Z,1.70
2022-10-09T22:12:51.084Z,2.17
2022-10-09T22:15:18.199Z,1.67
2022-10-09T22:17:45.223Z,1.95
2022-10-09T22:20:13.253Z,1.95
2022-10-09T22:22:40.270Z,1.88
2022-10-09T22:25:07.863Z,2.08
2022-10-09T22:27:34.870Z,2.00
2022-10-09T22:30:01.838Z,1.65
2022-10-09T22:32:28.797Z,2.00
2022-10-09T22:34:55.710Z,1.70
2022-10-09T22:37:22.596Z,1.70
2022-10-09T22:39:49.649Z,1.60
2022-10-09T22:42:16.656Z,1.98
2022-10-09T22:44:43.759Z,2.08
2022-10-09T22:47:10.820Z,2.10
2022-10-09T22:49:37.811Z,1.73
2022-10-09T22:52:04.831Z,2.10
2022-10-09T22:54:31.748Z,1.92
2022-10-09T22:56:58.849Z,2.00
2022-10-09T22:59:25.951Z,1.77
2022-10-09T23:01:57.542Z,2.15
2022-10-09T23:04:25.030Z,1.83
2022-10-09T23:06:54.879Z,1.48
2022-10-09T23:09:24.013Z,2.00
2022-10-09T23:11:51.278Z,2.17
2022-10-09T23:14:18.610Z,2.13
2022-10-09T23:16:45.771Z,1.70
2022-10-09T23:19:13.053Z,2.20
2022-10-09T23:21:42.113Z,1.92
2022-10-09T23:24:11.778Z,1.85
2022-10-09T23:26:38.708Z,1.85
2022-10-09T23:29:08.806Z,1.50
2022-10-09T23:31:36.994Z,2.15
2022-10-09T23:34:05.627Z,1.95
2022-10-09T23:36:32.882Z,1.70
2022-10-09T23:39:02.026Z,1.70
2022-10-09T23:41:29.570Z,2.00
2022-10-09T23:43:56.762Z,1.80
2022-10-09T23:46:29.229Z,1.70
2022-10-09T23:48:56.457Z,1.83
2022-10-09T23:51:24.914Z,1.70
2022-10-09T23:53:52.075Z,1.80
2022-10-09T23:56:29.290Z,1.80
2022-10-09T23:58:57.102Z,1.95
